Proud — 9HWA9 — position and weather

sailwx.info

Track history (hours):
 
Tides and Currents Weather Stations Pressure Air Temp Water Temp Dewpoint Dewpoint Depression Visibility Wind Speed Wind Dir Waves Ship Positions

Proud

Last reported at 2017-Aug-06 00:17 UTC. Time now 2017-Aug-18 10:36 UTC.
Position N 01°15' E 104°01'.
Warning: this ship's position is 12 days out of date.

Length 292 m; draft 18.4 m.

Type: Cargo ship. MMSI: 249619000.

Date/timePositionNaut miles runAvg speedWind from/ knotsBaromVisibWave heightAir tempDewpointWater temp
2017-Aug-06 00:17N 01°15' E 104°01'3 6.5
2017-Aug-05 23:50N 01°16' E 103°58'1 0.1
2017-Aug-05 16:30N 01°16' E 103°58'0 0.2
2017-Aug-05 14:21N 01°16' E 103°57'0 0.0
2017-Aug-05 11:06N 01°16' E 103°57'0 0.1
2017-Aug-05 11:00N 01°16' E 103°57'0 0.0
2017-Aug-05 02:03N 01°16' E 103°57'0 0.1
2017-Aug-05 01:40N 01°16' E 103°57'0 1.1
2017-Aug-05 01:30N 01°16' E 103°57'1 1.5
2017-Aug-05 00:57N 01°15' E 103°57'2 4.2
2017-Aug-05 00:30N 01°14' E 103°56'3 6.3
2017-Aug-04 23:59N 01°12' E 103°53'3 6.8
2017-Aug-04 23:30N 01°11' E 103°50'3 6.4
2017-Aug-04 23:00N 01°10' E 103°47'4 7.9
2017-Aug-04 22:30N 01°07' E 103°44'4 8.4
2017-Aug-04 22:00N 01°04' E 103°41'4 7.6
2017-Aug-04 21:30N 01°04' E 103°37'4 7.8
2017-Aug-04 21:00N 01°06' E 103°34'4 7.4
2017-Aug-04 20:30N 01°08' E 103°31'4 7.4
2017-Aug-04 20:00N 01°10' E 103°28'5 8.8
2017-Aug-04 19:25N 01°13' E 103°23'611.1
2017-Aug-04 18:53N 01°17' E 103°19'  
Track history (hours):
 
Tides and Currents Weather Stations Pressure Air Temp Water Temp Dewpoint Dewpoint Depression Visibility Wind Speed Wind Dir Waves Ship Positions

Proud

Last reported at 2017-Aug-06 00:17 UTC. Time now 2017-Aug-18 10:36 UTC.
Position N 01°15' E 104°01'.
Warning: this ship's position is 12 days out of date.

Length 292 m; draft 18.4 m.

Type: Cargo ship. MMSI: 249619000.

Date/timePositionNaut miles runAvg speedWind from/ knotsBaromVisibWave heightAir tempDewpointWater temp
2017-Aug-06 00:17N 01°15' E 104°01'3 6.5
2017-Aug-05 23:50N 01°16' E 103°58'1 0.1
2017-Aug-05 16:30N 01°16' E 103°58'0 0.2
2017-Aug-05 14:21N 01°16' E 103°57'0 0.0
2017-Aug-05 11:06N 01°16' E 103°57'0 0.1
2017-Aug-05 11:00N 01°16' E 103°57'0 0.0
2017-Aug-05 02:03N 01°16' E 103°57'0 0.1
2017-Aug-05 01:40N 01°16' E 103°57'0 1.1
2017-Aug-05 01:30N 01°16' E 103°57'1 1.5
2017-Aug-05 00:57N 01°15' E 103°57'2 4.2
2017-Aug-05 00:30N 01°14' E 103°56'3 6.3
2017-Aug-04 23:59N 01°12' E 103°53'3 6.8
2017-Aug-04 23:30N 01°11' E 103°50'3 6.4
2017-Aug-04 23:00N 01°10' E 103°47'4 7.9
2017-Aug-04 22:30N 01°07' E 103°44'4 8.4
2017-Aug-04 22:00N 01°04' E 103°41'4 7.6
2017-Aug-04 21:30N 01°04' E 103°37'4 7.8
2017-Aug-04 21:00N 01°06' E 103°34'4 7.4
2017-Aug-04 20:30N 01°08' E 103°31'4 7.4
2017-Aug-04 20:00N 01°10' E 103°28'5 8.8
2017-Aug-04 19:25N 01°13' E 103°23'611.1
2017-Aug-04 18:53N 01°17' E 103°19'  

Dump ship's entire track history